Lone Tree, Illinois
Current Conditions -  °F | °C
As of 10:15 PM on Wednesday 17 Dec 2014 (Local Time) from KC75 Reporting Station
Clear Clear  
Wind Chill: 18°   Ceiling: Unl
Heat Index: 18°   Visibility: 10mi
Dew Point: 15°   Wind: 0mph
Humidity: 87%   Direction: NA
Pressure: 30.31"   Gusts: NA
Location:  41.2776°N, 89.5099°W
Report Text: KC75 180415Z AUTO 00000KT 10SM CLR M08/M09 A3031 RMK AO2 T10771095
Loading
Personal Weather Stations






























Interactive Weather Map New forecast layout! Learn more

10-Day Weather Forecast

Advertisements
Track Severe Weather on mobile